sensor_id;sensor_type;location;lat;lon;timestamp;P1;durP1;ratioP1;P2;durP2;ratioP2
52564;SDS011;38460;53.106;7.004;2023-04-03T00:01:15;2.22;;;1.25;;
52564;SDS011;38460;53.106;7.004;2023-04-03T00:03:41;4.57;;;1.15;;
52564;SDS011;38460;53.106;7.004;2023-04-03T00:06:08;1.20;;;0.80;;
52564;SDS011;38460;53.106;7.004;2023-04-03T00:08:36;2.38;;;1.35;;
52564;SDS011;38460;53.106;7.004;2023-04-03T00:11:03;4.40;;;1.08;;
52564;SDS011;38460;53.106;7.004;2023-04-03T00:13:29;3.35;;;1.23;;
52564;SDS011;38460;53.106;7.004;2023-04-03T00:15:55;2.78;;;1.23;;
52564;SDS011;38460;53.106;7.004;2023-04-03T00:18:21;2.88;;;1.10;;
52564;SDS011;38460;53.106;7.004;2023-04-03T00:20:47;1.90;;;0.93;;
52564;SDS011;38460;53.106;7.004;2023-04-03T00:23:13;1.95;;;1.00;;
52564;SDS011;38460;53.106;7.004;2023-04-03T00:25:39;2.95;;;1.42;;
52564;SDS011;38460;53.106;7.004;2023-04-03T00:28:06;3.55;;;1.40;;
52564;SDS011;38460;53.106;7.004;2023-04-03T00:30:31;2.10;;;1.02;;
52564;SDS011;38460;53.106;7.004;2023-04-03T00:32:57;2.65;;;1.25;;
52564;SDS011;38460;53.106;7.004;2023-04-03T00:35:24;2.10;;;1.10;;
52564;SDS011;38460;53.106;7.004;2023-04-03T00:37:51;3.22;;;1.10;;
52564;SDS011;38460;53.106;7.004;2023-04-03T00:40:18;3.20;;;1.30;;
52564;SDS011;38460;53.106;7.004;2023-04-03T00:42:46;2.72;;;1.23;;
52564;SDS011;38460;53.106;7.004;2023-04-03T00:48:05;3.75;;;1.33;;
52564;SDS011;38460;53.106;7.004;2023-04-03T00:50:35;4.03;;;1.40;;
52564;SDS011;38460;53.106;7.004;2023-04-03T00:53:04;2.70;;;1.20;;
52564;SDS011;38460;53.106;7.004;2023-04-03T00:55:31;3.08;;;1.10;;
52564;SDS011;38460;53.106;7.004;2023-04-03T00:57:57;2.38;;;1.30;;
52564;SDS011;38460;53.106;7.004;2023-04-03T01:00:25;2.38;;;1.30;;
52564;SDS011;38460;53.106;7.004;2023-04-03T01:02:51;3.03;;;1.27;;
52564;SDS011;38460;53.106;7.004;2023-04-03T01:05:17;2.17;;;1.20;;
52564;SDS011;38460;53.106;7.004;2023-04-03T01:07:45;5.07;;;1.42;;
52564;SDS011;38460;53.106;7.004;2023-04-03T01:10:12;2.95;;;1.35;;
52564;SDS011;38460;53.106;7.004;2023-04-03T01:12:41;3.65;;;1.30;;
52564;SDS011;38460;53.106;7.004;2023-04-03T01:15:09;3.65;;;1.80;;
52564;SDS011;38460;53.106;7.004;2023-04-03T01:17:48;5.13;;;1.73;;
52564;SDS011;38460;53.106;7.004;2023-04-03T01:25:28;3.15;;;1.30;;
52564;SDS011;38460;53.106;7.004;2023-04-03T01:27:55;4.43;;;1.45;;
52564;SDS011;38460;53.106;7.004;2023-04-03T01:30:21;7.85;;;1.40;;
52564;SDS011;38460;53.106;7.004;2023-04-03T01:32:52;2.38;;;1.45;;
52564;SDS011;38460;53.106;7.004;2023-04-03T01:35:18;4.57;;;1.70;;
52564;SDS011;38460;53.106;7.004;2023-04-03T01:37:44;3.65;;;1.38;;
52564;SDS011;38460;53.106;7.004;2023-04-03T01:40:10;4.43;;;1.60;;
52564;SDS011;38460;53.106;7.004;2023-04-03T01:42:36;4.72;;;2.10;;
52564;SDS011;38460;53.106;7.004;2023-04-03T01:45:01;5.63;;;1.33;;
52564;SDS011;38460;53.106;7.004;2023-04-03T01:47:27;3.13;;;1.30;;
52564;SDS011;38460;53.106;7.004;2023-04-03T01:49:53;3.65;;;1.55;;
52564;SDS011;38460;53.106;7.004;2023-04-03T01:52:19;4.18;;;1.33;;
52564;SDS011;38460;53.106;7.004;2023-04-03T01:54:45;3.67;;;1.85;;
52564;SDS011;38460;53.106;7.004;2023-04-03T01:57:10;4.80;;;1.60;;
52564;SDS011;38460;53.106;7.004;2023-04-03T01:59:38;4.28;;;1.92;;
52564;SDS011;38460;53.106;7.004;2023-04-03T02:02:04;3.20;;;1.30;;
52564;SDS011;38460;53.106;7.004;2023-04-03T02:04:30;2.95;;;1.60;;
52564;SDS011;38460;53.106;7.004;2023-04-03T02:06:56;4.55;;;2.20;;
52564;SDS011;38460;53.106;7.004;2023-04-03T02:09:21;5.95;;;1.73;;
52564;SDS011;38460;53.106;7.004;2023-04-03T02:11:47;3.08;;;1.63;;
52564;SDS011;38460;53.106;7.004;2023-04-03T02:14:13;7.25;;;2.42;;
52564;SDS011;38460;53.106;7.004;2023-04-03T02:16:38;6.97;;;3.53;;
52564;SDS011;38460;53.106;7.004;2023-04-03T02:19:04;3.58;;;1.60;;
52564;SDS011;38460;53.106;7.004;2023-04-03T02:21:30;4.25;;;1.60;;
52564;SDS011;38460;53.106;7.004;2023-04-03T02:23:56;6.05;;;2.00;;
52564;SDS011;38460;53.106;7.004;2023-04-03T02:26:22;3.58;;;1.60;;
52564;SDS011;38460;53.106;7.004;2023-04-03T02:28:48;5.93;;;1.60;;
52564;SDS011;38460;53.106;7.004;2023-04-03T02:31:13;3.05;;;1.88;;
52564;SDS011;38460;53.106;7.004;2023-04-03T02:33:40;3.75;;;1.63;;
52564;SDS011;38460;53.106;7.004;2023-04-03T02:36:06;3.95;;;1.50;;
52564;SDS011;38460;53.106;7.004;2023-04-03T02:38:33;3.85;;;1.48;;
52564;SDS011;38460;53.106;7.004;2023-04-03T02:41:03;4.65;;;1.90;;
52564;SDS011;38460;53.106;7.004;2023-04-03T02:43:31;15.15;;;2.38;;
52564;SDS011;38460;53.106;7.004;2023-04-03T02:45:57;5.60;;;2.00;;
52564;SDS011;38460;53.106;7.004;2023-04-03T02:48:23;8.30;;;2.10;;
52564;SDS011;38460;53.106;7.004;2023-04-03T02:50:49;4.95;;;1.90;;
52564;SDS011;38460;53.106;7.004;2023-04-03T02:53:15;4.15;;;1.83;;
52564;SDS011;38460;53.106;7.004;2023-04-03T02:55:41;6.97;;;1.90;;
52564;SDS011;38460;53.106;7.004;2023-04-03T02:58:07;6.53;;;2.25;;
52564;SDS011;38460;53.106;7.004;2023-04-03T03:00:33;4.82;;;1.77;;
52564;SDS011;38460;53.106;7.004;2023-04-03T03:02:59;5.50;;;2.15;;
52564;SDS011;38460;53.106;7.004;2023-04-03T03:05:25;6.75;;;2.03;;
52564;SDS011;38460;53.106;7.004;2023-04-03T03:07:51;5.03;;;2.35;;
52564;SDS011;38460;53.106;7.004;2023-04-03T03:10:17;5.68;;;1.80;;
52564;SDS011;38460;53.106;7.004;2023-04-03T03:12:43;6.47;;;2.40;;
52564;SDS011;38460;53.106;7.004;2023-04-03T03:15:09;2.53;;;1.60;;
52564;SDS011;38460;53.106;7.004;2023-04-03T03:17:35;5.00;;;1.88;;
52564;SDS011;38460;53.106;7.004;2023-04-03T03:20:01;6.53;;;2.00;;
52564;SDS011;38460;53.106;7.004;2023-04-03T03:22:28;6.78;;;2.10;;
52564;SDS011;38460;53.106;7.004;2023-04-03T03:24:54;5.55;;;2.00;;
52564;SDS011;38460;53.106;7.004;2023-04-03T03:27:20;7.28;;;2.78;;
52564;SDS011;38460;53.106;7.004;2023-04-03T03:29:46;3.90;;;2.17;;
52564;SDS011;38460;53.106;7.004;2023-04-03T03:32:12;4.00;;;1.70;;
52564;SDS011;38460;53.106;7.004;2023-04-03T03:34:38;4.78;;;2.45;;
52564;SDS011;38460;53.106;7.004;2023-04-03T03:37:04;6.15;;;2.25;;
52564;SDS011;38460;53.106;7.004;2023-04-03T03:39:30;4.28;;;2.03;;
52564;SDS011;38460;53.106;7.004;2023-04-03T03:41:56;4.40;;;1.90;;
52564;SDS011;38460;53.106;7.004;2023-04-03T03:44:21;5.78;;;1.90;;
52564;SDS011;38460;53.106;7.004;2023-04-03T03:46:47;4.35;;;2.17;;
52564;SDS011;38460;53.106;7.004;2023-04-03T03:49:13;6.40;;;2.05;;
52564;SDS011;38460;53.106;7.004;2023-04-03T03:51:41;4.00;;;2.30;;
52564;SDS011;38460;53.106;7.004;2023-04-03T03:54:07;8.45;;;2.17;;
52564;SDS011;38460;53.106;7.004;2023-04-03T03:56:34;5.20;;;2.20;;
52564;SDS011;38460;53.106;7.004;2023-04-03T03:59:00;7.07;;;2.47;;
52564;SDS011;38460;53.106;7.004;2023-04-03T04:01:26;7.57;;;2.70;;
52564;SDS011;38460;53.106;7.004;2023-04-03T04:03:51;7.68;;;2.10;;
52564;SDS011;38460;53.106;7.004;2023-04-03T04:06:19;6.20;;;2.47;;
52564;SDS011;38460;53.106;7.004;2023-04-03T04:08:45;4.85;;;1.95;;
52564;SDS011;38460;53.106;7.004;2023-04-03T04:11:11;4.40;;;2.58;;
52564;SDS011;38460;53.106;7.004;2023-04-03T04:13:40;3.92;;;2.10;;
52564;SDS011;38460;53.106;7.004;2023-04-03T04:16:06;4.53;;;2.58;;
52564;SDS011;38460;53.106;7.004;2023-04-03T04:18:32;4.47;;;1.88;;
52564;SDS011;38460;53.106;7.004;2023-04-03T04:20:58;5.95;;;2.38;;
52564;SDS011;38460;53.106;7.004;2023-04-03T04:23:24;3.53;;;2.10;;
52564;SDS011;38460;53.106;7.004;2023-04-03T04:25:50;4.97;;;2.47;;
52564;SDS011;38460;53.106;7.004;2023-04-03T04:28:16;5.15;;;2.20;;
52564;SDS011;38460;53.106;7.004;2023-04-03T04:30:41;6.78;;;3.05;;
52564;SDS011;38460;53.106;7.004;2023-04-03T04:33:07;6.78;;;2.65;;
52564;SDS011;38460;53.106;7.004;2023-04-03T04:35:33;3.92;;;2.35;;
52564;SDS011;38460;53.106;7.004;2023-04-03T04:37:59;5.22;;;2.33;;
52564;SDS011;38460;53.106;7.004;2023-04-03T04:40:26;3.28;;;2.05;;
52564;SDS011;38460;53.106;7.004;2023-04-03T04:42:52;13.32;;;2.78;;
52564;SDS011;38460;53.106;7.004;2023-04-03T04:45:18;4.55;;;2.13;;
52564;SDS011;38460;53.106;7.004;2023-04-03T04:47:43;5.35;;;2.45;;
52564;SDS011;38460;53.106;7.004;2023-04-03T04:50:09;6.18;;;2.70;;
52564;SDS011;38460;53.106;7.004;2023-04-03T04:52:36;4.88;;;2.33;;
52564;SDS011;38460;53.106;7.004;2023-04-03T04:55:02;5.85;;;3.10;;
52564;SDS011;38460;53.106;7.004;2023-04-03T04:57:28;14.23;;;3.33;;
52564;SDS011;38460;53.106;7.004;2023-04-03T04:59:54;8.43;;;2.33;;
52564;SDS011;38460;53.106;7.004;2023-04-03T05:02:20;6.80;;;3.05;;
52564;SDS011;38460;53.106;7.004;2023-04-03T05:04:46;6.78;;;2.88;;
52564;SDS011;38460;53.106;7.004;2023-04-03T05:07:11;6.65;;;2.88;;
52564;SDS011;38460;53.106;7.004;2023-04-03T05:09:37;6.13;;;3.10;;
52564;SDS011;38460;53.106;7.004;2023-04-03T05:12:03;7.75;;;2.35;;
52564;SDS011;38460;53.106;7.004;2023-04-03T05:14:29;5.93;;;2.42;;
52564;SDS011;38460;53.106;7.004;2023-04-03T05:16:55;4.20;;;2.33;;
52564;SDS011;38460;53.106;7.004;2023-04-03T05:19:22;6.03;;;2.38;;
52564;SDS011;38460;53.106;7.004;2023-04-03T05:21:48;10.00;;;2.30;;
52564;SDS011;38460;53.106;7.004;2023-04-03T05:24:14;10.60;;;2.55;;
52564;SDS011;38460;53.106;7.004;2023-04-03T05:26:41;8.23;;;2.85;;
52564;SDS011;38460;53.106;7.004;2023-04-03T05:29:07;7.72;;;2.25;;
52564;SDS011;38460;53.106;7.004;2023-04-03T05:31:33;6.18;;;2.42;;
52564;SDS011;38460;53.106;7.004;2023-04-03T05:34:00;6.80;;;2.88;;
52564;SDS011;38460;53.106;7.004;2023-04-03T05:36:25;8.52;;;3.13;;
52564;SDS011;38460;53.106;7.004;2023-04-03T05:38:52;9.27;;;2.90;;
52564;SDS011;38460;53.106;7.004;2023-04-03T05:41:18;6.38;;;2.92;;
52564;SDS011;38460;53.106;7.004;2023-04-03T05:43:45;5.82;;;2.58;;
52564;SDS011;38460;53.106;7.004;2023-04-03T05:46:12;4.82;;;2.42;;
52564;SDS011;38460;53.106;7.004;2023-04-03T05:48:42;6.93;;;2.33;;
52564;SDS011;38460;53.106;7.004;2023-04-03T05:51:14;5.93;;;3.08;;
52564;SDS011;38460;53.106;7.004;2023-04-03T05:53:42;6.15;;;2.72;;
52564;SDS011;38460;53.106;7.004;2023-04-03T05:56:10;8.75;;;3.20;;
52564;SDS011;38460;53.106;7.004;2023-04-03T05:58:36;3.83;;;2.25;;
52564;SDS011;38460;53.106;7.004;2023-04-03T06:01:02;4.35;;;2.10;;
52564;SDS011;38460;53.106;7.004;2023-04-03T06:03:27;5.18;;;2.97;;
52564;SDS011;38460;53.106;7.004;2023-04-03T06:05:53;4.35;;;2.38;;
52564;SDS011;38460;53.106;7.004;2023-04-03T06:08:19;4.97;;;2.85;;
52564;SDS011;38460;53.106;7.004;2023-04-03T06:10:45;5.60;;;2.85;;
52564;SDS011;38460;53.106;7.004;2023-04-03T06:13:11;5.03;;;2.80;;
52564;SDS011;38460;53.106;7.004;2023-04-03T06:15:37;5.95;;;2.47;;
52564;SDS011;38460;53.106;7.004;2023-04-03T06:18:05;4.65;;;2.40;;
52564;SDS011;38460;53.106;7.004;2023-04-03T06:20:31;7.13;;;2.78;;
52564;SDS011;38460;53.106;7.004;2023-04-03T06:22:57;4.82;;;2.60;;
52564;SDS011;38460;53.106;7.004;2023-04-03T06:25:23;6.50;;;2.80;;
52564;SDS011;38460;53.106;7.004;2023-04-03T06:27:49;9.70;;;3.53;;
52564;SDS011;38460;53.106;7.004;2023-04-03T06:30:15;5.45;;;2.90;;
52564;SDS011;38460;53.106;7.004;2023-04-03T06:32:40;8.18;;;3.08;;
52564;SDS011;38460;53.106;7.004;2023-04-03T06:35:08;7.25;;;2.90;;
52564;SDS011;38460;53.106;7.004;2023-04-03T06:37:34;5.80;;;2.80;;
52564;SDS011;38460;53.106;7.004;2023-04-03T06:40:00;9.30;;;2.90;;
52564;SDS011;38460;53.106;7.004;2023-04-03T06:42:26;8.30;;;3.22;;
52564;SDS011;38460;53.106;7.004;2023-04-03T06:44:52;5.07;;;2.90;;
52564;SDS011;38460;53.106;7.004;2023-04-03T06:47:18;7.20;;;3.25;;
52564;SDS011;38460;53.106;7.004;2023-04-03T06:49:44;6.18;;;2.72;;
52564;SDS011;38460;53.106;7.004;2023-04-03T06:52:10;5.00;;;2.80;;
52564;SDS011;38460;53.106;7.004;2023-04-03T06:54:38;6.63;;;3.03;;
52564;SDS011;38460;53.106;7.004;2023-04-03T06:57:05;11.70;;;3.70;;
52564;SDS011;38460;53.106;7.004;2023-04-03T06:59:31;4.90;;;2.85;;
52564;SDS011;38460;53.106;7.004;2023-04-03T07:01:57;9.82;;;2.95;;
52564;SDS011;38460;53.106;7.004;2023-04-03T07:04:24;9.65;;;3.25;;
52564;SDS011;38460;53.106;7.004;2023-04-03T07:06:51;8.00;;;3.22;;
52564;SDS011;38460;53.106;7.004;2023-04-03T07:09:17;5.10;;;2.83;;
52564;SDS011;38460;53.106;7.004;2023-04-03T07:11:43;9.88;;;3.95;;
52564;SDS011;38460;53.106;7.004;2023-04-03T07:14:12;7.10;;;3.65;;
52564;SDS011;38460;53.106;7.004;2023-04-03T07:16:38;7.80;;;3.42;;
52564;SDS011;38460;53.106;7.004;2023-04-03T07:19:03;8.18;;;3.42;;
52564;SDS011;38460;53.106;7.004;2023-04-03T07:21:29;7.82;;;3.60;;
52564;SDS011;38460;53.106;7.004;2023-04-03T07:23:55;6.75;;;2.90;;
52564;SDS011;38460;53.106;7.004;2023-04-03T07:26:21;6.72;;;2.90;;
52564;SDS011;38460;53.106;7.004;2023-04-03T07:28:47;6.03;;;2.80;;
52564;SDS011;38460;53.106;7.004;2023-04-03T07:31:15;6.00;;;2.47;;
52564;SDS011;38460;53.106;7.004;2023-04-03T07:33:43;4.60;;;2.40;;
52564;SDS011;38460;53.106;7.004;2023-04-03T07:36:10;7.55;;;2.60;;
52564;SDS011;38460;53.106;7.004;2023-04-03T07:38:39;9.68;;;2.80;;
52564;SDS011;38460;53.106;7.004;2023-04-03T07:41:05;7.78;;;2.65;;
52564;SDS011;38460;53.106;7.004;2023-04-03T07:43:31;7.93;;;3.22;;
52564;SDS011;38460;53.106;7.004;2023-04-03T07:45:57;5.40;;;2.47;;
52564;SDS011;38460;53.106;7.004;2023-04-03T07:48:24;4.63;;;2.55;;
52564;SDS011;38460;53.106;7.004;2023-04-03T07:50:51;5.90;;;2.97;;
52564;SDS011;38460;53.106;7.004;2023-04-03T07:53:17;4.72;;;2.60;;
52564;SDS011;38460;53.106;7.004;2023-04-03T07:55:47;7.05;;;2.22;;
52564;SDS011;38460;53.106;7.004;2023-04-03T07:58:14;7.03;;;2.78;;
52564;SDS011;38460;53.106;7.004;2023-04-03T08:00:43;5.15;;;2.20;;
52564;SDS011;38460;53.106;7.004;2023-04-03T08:03:10;5.15;;;2.33;;
52564;SDS011;38460;53.106;7.004;2023-04-03T08:05:37;6.20;;;2.78;;
52564;SDS011;38460;53.106;7.004;2023-04-03T08:08:07;6.07;;;1.98;;
52564;SDS011;38460;53.106;7.004;2023-04-03T08:10:34;4.95;;;1.98;;
52564;SDS011;38460;53.106;7.004;2023-04-03T08:13:01;5.25;;;1.98;;
52564;SDS011;38460;53.106;7.004;2023-04-03T08:15:27;3.92;;;1.77;;
52564;SDS011;38460;53.106;7.004;2023-04-03T08:17:54;4.32;;;2.33;;
52564;SDS011;38460;53.106;7.004;2023-04-03T08:20:20;3.40;;;1.80;;
52564;SDS011;38460;53.106;7.004;2023-04-03T08:22:46;3.83;;;1.52;;
52564;SDS011;38460;53.106;7.004;2023-04-03T08:25:12;4.63;;;2.22;;
52564;SDS011;38460;53.106;7.004;2023-04-03T08:27:38;7.28;;;2.47;;
52564;SDS011;38460;53.106;7.004;2023-04-03T08:30:04;5.93;;;1.92;;
52564;SDS011;38460;53.106;7.004;2023-04-03T08:32:32;4.65;;;2.25;;
52564;SDS011;38460;53.106;7.004;2023-04-03T08:34:59;3.80;;;1.70;;
52564;SDS011;38460;53.106;7.004;2023-04-03T08:37:25;3.47;;;1.92;;
52564;SDS011;38460;53.106;7.004;2023-04-03T08:39:51;4.43;;;1.55;;
52564;SDS011;38460;53.106;7.004;2023-04-03T08:48:05;5.25;;;1.65;;
52564;SDS011;38460;53.106;7.004;2023-04-03T08:50:36;3.97;;;1.80;;
52564;SDS011;38460;53.106;7.004;2023-04-03T08:53:12;2.70;;;1.50;;
52564;SDS011;38460;53.106;7.004;2023-04-03T08:55:50;5.80;;;1.67;;
52564;SDS011;38460;53.106;7.004;2023-04-03T08:58:21;3.80;;;1.70;;
52564;SDS011;38460;53.106;7.004;2023-04-03T09:00:59;5.78;;;1.58;;
52564;SDS011;38460;53.106;7.004;2023-04-03T09:03:32;2.63;;;1.40;;
52564;SDS011;38460;53.106;7.004;2023-04-03T09:06:05;5.88;;;1.40;;
52564;SDS011;38460;53.106;7.004;2023-04-03T09:11:27;3.88;;;1.75;;
52564;SDS011;38460;53.106;7.004;2023-04-03T09:14:26;5.25;;;1.25;;
52564;SDS011;38460;53.106;7.004;2023-04-03T09:17:03;3.88;;;1.20;;
52564;SDS011;38460;53.106;7.004;2023-04-03T09:19:58;4.25;;;1.55;;
52564;SDS011;38460;53.106;7.004;2023-04-03T09:22:39;3.17;;;1.67;;
52564;SDS011;38460;53.106;7.004;2023-04-03T09:27:45;3.20;;;1.35;;
52564;SDS011;38460;53.106;7.004;2023-04-03T09:30:14;3.53;;;1.30;;
52564;SDS011;38460;53.106;7.004;2023-04-03T09:32:44;2.38;;;1.20;;
52564;SDS011;38460;53.106;7.004;2023-04-03T09:35:19;2.70;;;1.27;;
52564;SDS011;38460;53.106;7.004;2023-04-03T09:37:52;3.00;;;1.42;;
52564;SDS011;38460;53.106;7.004;2023-04-03T09:40:28;4.38;;;1.35;;
52564;SDS011;38460;53.106;7.004;2023-04-03T09:45:32;2.90;;;1.40;;
52564;SDS011;38460;53.106;7.004;2023-04-03T09:55:51;4.32;;;1.20;;
52564;SDS011;38460;53.106;7.004;2023-04-03T09:58:25;3.03;;;1.15;;
52564;SDS011;38460;53.106;7.004;2023-04-03T10:00:57;2.25;;;1.10;;
52564;SDS011;38460;53.106;7.004;2023-04-03T10:05:58;3.58;;;1.33;;
52564;SDS011;38460;53.106;7.004;2023-04-03T10:08:25;3.40;;;1.20;;
52564;SDS011;38460;53.106;7.004;2023-04-03T10:11:25;2.60;;;1.10;;
52564;SDS011;38460;53.106;7.004;2023-04-03T10:13:56;2.35;;;1.10;;
52564;SDS011;38460;53.106;7.004;2023-04-03T10:19:05;1.98;;;1.20;;
52564;SDS011;38460;53.106;7.004;2023-04-03T10:21:57;2.10;;;1.00;;
52564;SDS011;38460;53.106;7.004;2023-04-03T10:26:58;2.40;;;1.00;;
52564;SDS011;38460;53.106;7.004;2023-04-03T10:32:58;2.30;;;1.10;;
52564;SDS011;38460;53.106;7.004;2023-04-03T10:53:44;3.97;;;2.05;;
52564;SDS011;38460;53.106;7.004;2023-04-03T10:59:15;3.10;;;1.27;;
52564;SDS011;38460;53.106;7.004;2023-04-03T11:04:40;3.75;;;1.27;;
52564;SDS011;38460;53.106;7.004;2023-04-03T11:07:11;1.85;;;1.10;;
52564;SDS011;38460;53.106;7.004;2023-04-03T11:09:44;2.80;;;1.10;;
52564;SDS011;38460;53.106;7.004;2023-04-03T11:12:13;3.45;;;1.05;;
52564;SDS011;38460;53.106;7.004;2023-04-03T11:14:48;3.00;;;1.00;;
52564;SDS011;38460;53.106;7.004;2023-04-03T11:22:33;3.08;;;1.48;;
52564;SDS011;38460;53.106;7.004;2023-04-03T11:27:40;3.88;;;1.23;;
52564;SDS011;38460;53.106;7.004;2023-04-03T11:30:15;3.05;;;1.40;;
52564;SDS011;38460;53.106;7.004;2023-04-03T11:35:26;3.88;;;1.00;;
52564;SDS011;38460;53.106;7.004;2023-04-03T11:37:53;2.10;;;1.00;;
52564;SDS011;38460;53.106;7.004;2023-04-03T11:43:02;3.83;;;1.35;;
52564;SDS011;38460;53.106;7.004;2023-04-03T11:45:38;3.88;;;1.13;;
52564;SDS011;38460;53.106;7.004;2023-04-03T11:50:53;1.95;;;0.82;;
52564;SDS011;38460;53.106;7.004;2023-04-03T11:53:27;1.75;;;0.82;;
52564;SDS011;38460;53.106;7.004;2023-04-03T11:56:00;2.20;;;1.20;;
52564;SDS011;38460;53.106;7.004;2023-04-03T11:58:29;5.40;;;1.17;;
52564;SDS011;38460;53.106;7.004;2023-04-03T12:01:10;2.78;;;1.20;;
52564;SDS011;38460;53.106;7.004;2023-04-03T12:03:57;3.05;;;1.23;;
52564;SDS011;38460;53.106;7.004;2023-04-03T12:08:58;3.70;;;1.27;;
52564;SDS011;38460;53.106;7.004;2023-04-03T12:11:25;2.22;;;1.58;;
52564;SDS011;38460;53.106;7.004;2023-04-03T12:21:22;3.42;;;1.40;;
52564;SDS011;38460;53.106;7.004;2023-04-03T12:29:34;2.75;;;1.15;;
52564;SDS011;38460;53.106;7.004;2023-04-03T12:45:49;3.45;;;1.10;;
52564;SDS011;38460;53.106;7.004;2023-04-03T12:48:18;3.72;;;1.40;;
52564;SDS011;38460;53.106;7.004;2023-04-03T12:50:50;3.90;;;1.38;;
52564;SDS011;38460;53.106;7.004;2023-04-03T12:53:18;2.45;;;1.20;;
52564;SDS011;38460;53.106;7.004;2023-04-03T12:55:46;2.58;;;1.25;;
52564;SDS011;38460;53.106;7.004;2023-04-03T12:58:22;2.70;;;1.02;;
52564;SDS011;38460;53.106;7.004;2023-04-03T13:03:27;2.55;;;1.05;;
52564;SDS011;38460;53.106;7.004;2023-04-03T13:05:59;2.88;;;0.80;;
52564;SDS011;38460;53.106;7.004;2023-04-03T13:08:27;2.80;;;1.33;;
52564;SDS011;38460;53.106;7.004;2023-04-03T13:13:25;1.75;;;1.02;;
52564;SDS011;38460;53.106;7.004;2023-04-03T13:15:52;3.53;;;1.45;;
52564;SDS011;38460;53.106;7.004;2023-04-03T13:18:30;2.88;;;1.20;;
52564;SDS011;38460;53.106;7.004;2023-04-03T13:21:08;2.70;;;1.05;;
52564;SDS011;38460;53.106;7.004;2023-04-03T13:23:40;3.92;;;1.15;;
52564;SDS011;38460;53.106;7.004;2023-04-03T13:26:09;4.07;;;1.40;;
52564;SDS011;38460;53.106;7.004;2023-04-03T13:28:36;3.63;;;1.55;;
52564;SDS011;38460;53.106;7.004;2023-04-03T13:33:40;2.72;;;1.13;;
52564;SDS011;38460;53.106;7.004;2023-04-03T13:36:35;2.03;;;0.90;;
52564;SDS011;38460;53.106;7.004;2023-04-03T13:41:44;2.97;;;1.17;;
52564;SDS011;38460;53.106;7.004;2023-04-03T13:46:47;2.05;;;1.00;;
52564;SDS011;38460;53.106;7.004;2023-04-03T13:49:18;1.52;;;0.93;;
52564;SDS011;38460;53.106;7.004;2023-04-03T13:51:46;3.38;;;1.50;;
52564;SDS011;38460;53.106;7.004;2023-04-03T13:54:19;2.42;;;1.10;;
52564;SDS011;38460;53.106;7.004;2023-04-03T13:56:51;2.35;;;1.00;;
52564;SDS011;38460;53.106;7.004;2023-04-03T13:59:24;1.92;;;1.00;;
52564;SDS011;38460;53.106;7.004;2023-04-03T14:04:28;3.90;;;1.60;;
52564;SDS011;38460;53.106;7.004;2023-04-03T14:06:56;3.65;;;1.17;;
52564;SDS011;38460;53.106;7.004;2023-04-03T14:09:24;3.40;;;1.30;;
52564;SDS011;38460;53.106;7.004;2023-04-03T14:11:52;2.28;;;1.25;;
52564;SDS011;38460;53.106;7.004;2023-04-03T14:14:21;2.63;;;1.10;;
52564;SDS011;38460;53.106;7.004;2023-04-03T14:16:52;2.20;;;1.17;;
52564;SDS011;38460;53.106;7.004;2023-04-03T14:19:22;3.88;;;1.05;;
52564;SDS011;38460;53.106;7.004;2023-04-03T14:21:50;2.50;;;0.95;;
52564;SDS011;38460;53.106;7.004;2023-04-03T14:24:17;2.50;;;0.90;;
52564;SDS011;38460;53.106;7.004;2023-04-03T14:26:44;1.83;;;0.90;;
52564;SDS011;38460;53.106;7.004;2023-04-03T14:29:11;2.70;;;1.05;;
52564;SDS011;38460;53.106;7.004;2023-04-03T14:31:39;2.35;;;0.88;;
52564;SDS011;38460;53.106;7.004;2023-04-03T14:34:06;2.83;;;0.98;;
52564;SDS011;38460;53.106;7.004;2023-04-03T14:36:32;2.25;;;0.95;;
52564;SDS011;38460;53.106;7.004;2023-04-03T14:38:58;2.05;;;1.00;;
52564;SDS011;38460;53.106;7.004;2023-04-03T14:41:25;1.83;;;0.85;;
52564;SDS011;38460;53.106;7.004;2023-04-03T14:43:52;2.63;;;1.08;;
52564;SDS011;38460;53.106;7.004;2023-04-03T14:46:24;2.28;;;1.00;;
52564;SDS011;38460;53.106;7.004;2023-04-03T14:48:59;4.23;;;1.30;;
52564;SDS011;38460;53.106;7.004;2023-04-03T14:51:25;2.30;;;1.25;;
52564;SDS011;38460;53.106;7.004;2023-04-03T14:53:51;3.15;;;1.13;;
52564;SDS011;38460;53.106;7.004;2023-04-03T14:56:19;5.18;;;2.08;;
52564;SDS011;38460;53.106;7.004;2023-04-03T14:58:49;2.78;;;1.00;;
52564;SDS011;38460;53.106;7.004;2023-04-03T15:01:21;3.17;;;1.00;;
52564;SDS011;38460;53.106;7.004;2023-04-03T15:03:47;2.33;;;1.00;;
52564;SDS011;38460;53.106;7.004;2023-04-03T15:06:13;3.00;;;1.15;;
52564;SDS011;38460;53.106;7.004;2023-04-03T15:08:40;4.10;;;1.33;;
52564;SDS011;38460;53.106;7.004;2023-04-03T15:11:07;2.58;;;1.35;;
52564;SDS011;38460;53.106;7.004;2023-04-03T15:13:37;3.40;;;1.20;;
52564;SDS011;38460;53.106;7.004;2023-04-03T15:16:04;2.72;;;1.10;;
52564;SDS011;38460;53.106;7.004;2023-04-03T15:18:33;2.20;;;1.00;;
52564;SDS011;38460;53.106;7.004;2023-04-03T15:21:03;2.13;;;1.05;;
52564;SDS011;38460;53.106;7.004;2023-04-03T15:23:29;2.22;;;1.20;;
52564;SDS011;38460;53.106;7.004;2023-04-03T15:25:55;4.53;;;1.55;;
52564;SDS011;38460;53.106;7.004;2023-04-03T15:28:31;1.85;;;1.20;;
52564;SDS011;38460;53.106;7.004;2023-04-03T15:31:00;3.25;;;0.93;;
52564;SDS011;38460;53.106;7.004;2023-04-03T15:33:26;1.83;;;0.90;;
52564;SDS011;38460;53.106;7.004;2023-04-03T15:35:52;1.90;;;1.00;;
52564;SDS011;38460;53.106;7.004;2023-04-03T15:38:19;2.42;;;0.93;;
52564;SDS011;38460;53.106;7.004;2023-04-03T15:40:44;3.35;;;1.25;;
52564;SDS011;38460;53.106;7.004;2023-04-03T15:43:12;3.05;;;1.00;;
52564;SDS011;38460;53.106;7.004;2023-04-03T15:45:39;2.45;;;1.55;;
52564;SDS011;38460;53.106;7.004;2023-04-03T15:48:05;1.77;;;1.15;;
52564;SDS011;38460;53.106;7.004;2023-04-03T15:50:32;4.05;;;1.10;;
52564;SDS011;38460;53.106;7.004;2023-04-03T15:52:58;1.13;;;0.98;;
52564;SDS011;38460;53.106;7.004;2023-04-03T15:55:27;3.45;;;1.38;;
52564;SDS011;38460;53.106;7.004;2023-04-03T15:57:57;2.10;;;1.35;;
52564;SDS011;38460;53.106;7.004;2023-04-03T16:00:23;5.65;;;1.20;;
52564;SDS011;38460;53.106;7.004;2023-04-03T16:02:52;3.42;;;1.40;;
52564;SDS011;38460;53.106;7.004;2023-04-03T16:05:22;2.67;;;1.35;;
52564;SDS011;38460;53.106;7.004;2023-04-03T16:07:48;2.50;;;1.20;;
52564;SDS011;38460;53.106;7.004;2023-04-03T16:10:14;3.78;;;1.25;;
52564;SDS011;38460;53.106;7.004;2023-04-03T16:12:43;2.67;;;1.10;;
52564;SDS011;38460;53.106;7.004;2023-04-03T16:15:09;2.25;;;1.50;;
52564;SDS011;38460;53.106;7.004;2023-04-03T16:17:36;3.38;;;1.50;;
52564;SDS011;38460;53.106;7.004;2023-04-03T16:20:03;3.65;;;1.30;;
52564;SDS011;38460;53.106;7.004;2023-04-03T16:22:31;3.83;;;1.45;;
52564;SDS011;38460;53.106;7.004;2023-04-03T16:24:57;3.72;;;1.20;;
52564;SDS011;38460;53.106;7.004;2023-04-03T16:27:23;4.25;;;1.20;;
52564;SDS011;38460;53.106;7.004;2023-04-03T16:29:55;3.95;;;1.48;;
52564;SDS011;38460;53.106;7.004;2023-04-03T16:32:21;3.83;;;1.10;;
52564;SDS011;38460;53.106;7.004;2023-04-03T16:34:47;3.85;;;1.25;;
52564;SDS011;38460;53.106;7.004;2023-04-03T16:37:13;2.20;;;1.15;;
52564;SDS011;38460;53.106;7.004;2023-04-03T16:39:40;3.45;;;1.13;;
52564;SDS011;38460;53.106;7.004;2023-04-03T16:42:06;2.17;;;1.05;;
52564;SDS011;38460;53.106;7.004;2023-04-03T16:44:33;2.00;;;1.23;;
52564;SDS011;38460;53.106;7.004;2023-04-03T16:46:59;2.58;;;1.38;;
52564;SDS011;38460;53.106;7.004;2023-04-03T16:49:24;2.17;;;1.08;;
52564;SDS011;38460;53.106;7.004;2023-04-03T16:51:52;2.47;;;1.13;;
52564;SDS011;38460;53.106;7.004;2023-04-03T16:54:18;1.95;;;1.00;;
52564;SDS011;38460;53.106;7.004;2023-04-03T16:56:43;2.15;;;1.33;;
52564;SDS011;38460;53.106;7.004;2023-04-03T16:59:09;2.90;;;1.00;;